Terminal Aerodrome Forecast
Issued by NWS

Home | Current Version | Previous Version | Text Only | Print | Product List | Glossary On
Versions: 1 2 3 4 5 6 7 8 9 10 11 12 13 14 15 16 17 18 19
000
FTUS41 KBGM 221141
TAFITH
TAF
KITH 221141Z 2212/2312 32010G17KT 5SM -SNRA OVC015
      TEMPO 2212/2214 2SM -SN BR OVC007
     FM221500 31012G20KT P6SM BKN020
     FM222000 31013G22KT P6SM BKN035
     FM230100 31007KT P6SM BKN040
     FM230700 VRB04KT P6SM BKN040=

USA.gov is the U.S. government's official web portal to all federal, state and local government web resources and services.